Data for 09/20/2009

Time Sea-Level Adjusted Pressure Absolute Pressure Temperature Relative Humidity Dew Point   
(mb) (inHg) (mb) (inHg) (C) (F) (%) (C) (F)
00:05 1015 29.97 844 24.92 18.5 65.4 46 6.9 44.5
00:10 1015 29.97 844 24.92 18.4 65.1 47 7.1 44.8
00:15 1015 29.97 844 24.92 18.2 64.8 48 7.2 44.9
00:20 1015 29.97 844 24.92 18 64.4 50 7.5 45.4
00:25 1015 29.97 844 24.92 17.8 64.1 51 7.5 45.6
00:30 1015 29.97 844 24.92 17.7 63.8 51 7.4 45.4
00:35 1015 29.97 844 24.92 17.6 63.6 52 7.7 45.9
00:40 1015 29.97 844 24.92 17.5 63.5 52 7.7 45.8
00:45 1015 29.97 844 24.92 17.2 62.9 53 7.7 45.9
00:50 1015 29.97 845 24.95 17 62.5 55 7.9 46.1
00:55 1016 30 845 24.95 16.7 62 57 8.1 46.6
01:00 1016 30 845 24.95 16.3 61.4 57 8 46.3
01:05 1016 30 845 24.95 16.3 61.3 57 7.9 46.3
01:10 1016 30 845 24.95 16.3 61.3 58 8 46.4
01:15 1016 30 845 24.95 16.2 61.2 58 8.1 46.5
01:20 1016 30 845 24.95 16.3 61.3 59 8.4 47.2
01:25 1016 30 845 24.95 16.2 61.2 62 9 48.1
01:30 1016 30 845 24.95 15.9 60.7 66 9.8 49.6
01:35 1016 30 846 24.98 15.5 59.8 66 9.2 48.6
01:40 1017 30.03 846 24.98 15.3 59.5 66 9.1 48.3
01:45 1017 30.03 846 24.98 15.3 59.5 69 9.7 49.4
01:50 1017 30.03 846 24.98 14.9 58.8 75 10.6 51.1
01:55 1016 30 846 24.98 13.8 56.8 80 10.3 50.6
02:00 1016 30 846 24.98 13.2 55.8 84 10.6 51
02:05 1016 30 845 24.95 13 55.4 81 9.8 49.7
02:10 1016 30 845 24.95 13.1 55.6 83 10.3 50.5
02:15 1016 30 845 24.95 13.2 55.7 81 10 49.9
02:20 1016 30 845 24.95 13.3 55.9 80 9.9 49.9
02:25 1016 30 845 24.95 13.3 56 78 9.6 49.3
02:30 1016 30 845 24.95 13.2 55.7 83 10.4 50.8
02:35 1016 30 845 24.95 12.7 54.8 85 10.2 50.4
02:40 1016 30 845 24.95 12.5 54.5 84 9.9 49.9
02:45 1016 30 845 24.95 12.5 54.4 84 9.8 49.6
02:50 1016 30 845 24.95 12.4 54.4 83 9.6 49.3
02:55 1016 30 845 24.95 12.3 54.2 83 9.6 49.2
03:00 1016 30 845 24.95 12.1 53.9 83 9.4 48.9
03:05 1016 30 845 24.95 12.1 53.9 82 9.1 48.4
03:10 1016 30 845 24.95 12.2 54 82 9.3 48.8
03:15 1016 30 845 24.95 12.1 53.7 83 9.3 48.7
03:20 1016 30 845 24.95 12.1 53.7 83 9.3 48.7
03:25 1016 30 845 24.95 12 53.6 83 9.3 48.7
03:30 1016 30 845 24.95 11.9 53.5 83 9.2 48.5
03:35 1016 30 845 24.95 11.9 53.4 84 9.2 48.6
03:40 1016 30 845 24.95 11.9 53.3 84 9.3 48.7
03:45 1016 30 845 24.95 11.7 53.1 86 9.5 49.2
03:50 1016 30 845 24.95 11.5 52.7 87 9.4 49
03:55 1016 30 845 24.95 11.5 52.6 85 9.1 48.4
04:00 1016 30 845 24.95 11.5 52.7 86 9.2 48.6
04:05 1016 30 845 24.95 11.5 52.7 85 9.1 48.4
04:10 1016 30 845 24.95 11.7 53 85 9.2 48.6
04:15 1016 30 845 24.95 11.7 53 88 9.7 49.4
04:20 1016 30 845 24.95 11.5 52.7 88 9.6 49.3
04:25 1016 30 845 24.95 11.5 52.7 89 9.7 49.5
04:30 1016 30 845 24.95 11.5 52.8 87 9.4 48.9
04:35 1016 30 845 24.95 11.7 53.1 87 9.6 49.2
04:40 1016 30 845 24.95 11.8 53.3 87 9.7 49.5
04:45 1016 30 845 24.95 12 53.6 86 9.8 49.6
04:50 1016 30 845 24.95 12.3 54.1 85 9.9 49.8
04:55 1016 30 845 24.95 12.1 53.8 88 10.1 50.3
05:00 1016 30 845 24.95 11.8 53.2 88 9.9 49.8
05:05 1016 30 846 24.98 11.7 53 88 9.7 49.4
05:10 1017 30.03 846 24.98 11.6 52.9 87 9.5 49.1
05:15 1017 30.03 846 24.98 11.7 53.1 86 9.5 49.2
05:20 1017 30.03 846 24.98 11.9 53.3 84 9.2 48.5
05:25 1016 30 846 24.98 12 53.5 87 9.9 49.7
05:30 1016 30 845 24.95 11.5 52.8 90 10 50
05:35 1016 30 845 24.95 11.2 52.2 90 9.7 49.4
05:40 1016 30 846 24.98 11.4 52.5 88 9.4 49
05:45 1016 30 845 24.95 11.5 52.7 86 9.3 48.7
05:50 1016 30 846 24.98 11.7 53.1 84 9.2 48.5
05:55 1016 30 846 24.98 11.8 53.3 83 9 48.3
06:00 1016 30 846 24.98 12 53.5 80 8.7 47.7
06:05 1017 30.03 846 24.98 12 53.6 81 8.8 47.9
06:10 1017 30.03 846 24.98 12 53.7 81 8.9 48
06:15 1017 30.03 846 24.98 12 53.5 82 8.9 48.1
06:20 1017 30.03 846 24.98 11.9 53.5 82 8.9 48.1
06:25 1017 30.03 846 24.98 11.9 53.4 83 9.1 48.3
06:30 1017 30.03 846 24.98 11.8 53.3 82 8.9 48
06:35 1017 30.03 846 24.98 11.9 53.4 81 8.7 47.6
06:40 1017 30.03 846 24.98 12 53.7 80 8.6 47.5
06:45 1017 30.03 846 24.98 12.3 54.2 78 8.7 47.6
06:50 1017 30.03 846 24.98 12.3 54.2 75 8.1 46.6
06:55 1017 30.03 846 24.98 12.4 54.4 78 8.7 47.6
07:00 1017 30.03 846 24.98 12.4 54.4 79 9 48.1
07:05 1017 30.03 846 24.98 12.2 53.9 79 8.7 47.6
07:10 1017 30.03 846 24.98 12 53.6 79 8.5 47.2
07:15 1017 30.03 846 24.98 12 53.6 79 8.5 47.3
07:20 1017 30.03 846 24.98 12.1 53.7 79 8.6 47.5
07:25 1017 30.03 847 25.01 12 53.5 80 8.7 47.6
07:30 1018 30.06 847 25.01 11.9 53.4 83 9.2 48.6
07:35 1018 30.06 847 25.01 11.5 52.7 84 8.9 47.9
07:40 1018 30.06 847 25.01 11.7 53 84 9.2 48.5
07:45 1018 30.06 847 25.01 11.9 53.4 80 8.6 47.5
07:50 1018 30.06 847 25.01 12.1 53.9 83 9.3 48.8
07:55 1018 30.06 847 25.01 11.9 53.4 85 9.5 49.2
08:00 1018 30.06 847 25.01 11.7 53 83 9 48.1
08:05 1018 30.06 847 25.01 11.6 52.9 82 8.7 47.6
08:10 1018 30.06 847 25.01 11.8 53.2 80 8.5 47.2
08:15 1018 30.06 847 25.01 11.8 53.3 81 8.6 47.6
08:20 1018 30.06 847 25.01 12 53.6 75 7.7 45.9
08:25 1018 30.06 847 25.01 12.2 53.9 72 7.4 45.2
08:30 1018 30.06 847 25.01 12.2 54 75 7.9 46.3
08:35 1018 30.06 847 25.01 12.2 54 73 7.5 45.5
08:40 1018 30.06 847 25.01 12.1 53.7 71 7.1 44.7
08:45 1018 30.06 847 25.01 12 53.6 74 7.6 45.7
08:50 1018 30.06 847 25.01 12 53.6 72 7.2 45
08:55 1018 30.06 848 25.04 12.2 53.9 69 6.6 43.9
09:00 1018 30.06 848 25.04 12.3 54.1 70 7 44.7
09:05 1018 30.06 848 25.04 12.2 54 71 7.1 44.8
09:10 1018 30.06 848 25.04 12.2 54 71 7.3 45.1
09:15 1018 30.06 848 25.04 12.2 54 71 7.1 44.8
09:20 1018 30.06 848 25.04 12.3 54.2 68 6.7 44
09:25 1019 30.09 848 25.04 12.4 54.2 68 6.7 44.1
09:30 1019 30.09 848 25.04 12.3 54.2 68 6.7 44
09:35 1019 30.09 848 25.04 12.4 54.3 68 6.7 44.1
09:40 1019 30.09 848 25.04 12.5 54.5 70 7.2 45
09:45 1019 30.09 848 25.04 12.6 54.7 70 7.3 45.1
09:50 1019 30.09 848 25.04 12.7 54.8 70 7.3 45.2
09:55 1019 30.09 848 25.04 12.6 54.8 71 7.5 45.5
10:00 1019 30.09 848 25.04 13 55.4 68 7.4 45.3
10:05 1019 30.09 848 25.04 13.6 56.4 67 7.6 45.7
10:10 1019 30.09 848 25.04 13.6 56.4 68 7.9 46.2
10:15 1019 30.09 848 25.04 13.5 56.4 68 7.7 45.9
10:20 1019 30.09 848 25.04 13.5 56.3 66 7.3 45.2
10:25 1019 30.09 848 25.04 13.3 55.9 61 6.1 42.9
10:30 1019 30.09 849 25.07 13 55.4 63 6.1 42.9
10:35 1019 30.09 848 25.04 12.9 55.3 63 6.2 43.2
10:40 1019 30.09 849 25.07 12.5 54.5 60 5.1 41.2
10:45 1019 30.09 849 25.07 12.1 53.8 60 4.7 40.5
10:50 1020 30.12 849 25.07 12 53.6 62 4.9 40.9
10:55 1020 30.12 849 25.07 12.3 54.1 61 5 41.1
11:00 1020 30.12 849 25.07 12.6 54.7 59 4.8 40.6
11:05 1020 30.12 849 25.07 13.6 56.5 55 4.9 40.8
11:10 1020 30.12 849 25.07 14 57.2 53 4.7 40.4
11:15 1020 30.12 849 25.07 14 57.2 52 4.4 39.9
11:20 1020 30.12 849 25.07 14.2 57.5 49 3.7 38.6
11:25 1020 30.12 849 25.07 14.4 58 48 3.6 38.5
11:30 1020 30.12 849 25.07 14.3 57.8 47 3.2 37.8
11:35 1020 30.12 849 25.07 14.6 58.3 45 3 37.4
11:40 1020 30.12 849 25.07 14.6 58.4 45 2.8 37.1
11:45 1020 30.12 849 25.07 14.9 58.8 42 2.2 36
11:50 1020 30.12 849 25.07 15.3 59.5 41 2.1 35.8
11:55 1020 30.12 849 25.07 15.4 59.7 41 2.2 35.9
12:00 1020 30.12 849 25.07 15.2 59.3 38 1 33.7
12:05 1020 30.12 849 25.07 16 60.7 34 0.4 32.8
12:10 1020 30.12 849 25.07 15.6 60.2 34 0 32.1
12:15 1020 30.12 849 25.07 15.5 60 31 -1.2 29.8
12:20 1020 30.12 849 25.07 15.7 60.3 31 -1.5 29.4
12:25 1020 30.12 849 25.07 15.8 60.4 30 -1.8 28.8
12:30 1020 30.12 849 25.07 16.1 60.9 29 -1.9 28.5
12:35 1020 30.12 849 25.07 16.1 60.9 26 -3.3 26.1
12:40 1020 30.12 849 25.07 16.3 61.4 25 -3.5 25.7
12:45 1020 30.12 849 25.07 16.4 61.6 27 -2.5 27.4
12:50 1020 30.12 849 25.07 17 62.6 27 -2.2 28
12:55 1020 30.12 849 25.07 17.2 62.9 28 -1.5 29.3
13:00 1020 30.12 849 25.07 15.9 60.6 29 -2.1 28.2
13:05 1020 30.12 849 25.07 15.2 59.4 29 -2.6 27.3
13:10 1020 30.12 849 25.07 14.9 58.9 30 -2.5 27.5
13:15 1020 30.12 849 25.07 14.7 58.5 28 -3.5 25.7
13:20 1020 30.12 849 25.07 15.2 59.4 26 -3.8 25.1
13:25 1020 30.12 849 25.07 15.8 60.4 26 -3.4 25.9
13:30 1020 30.12 849 25.07 16 60.8 26 -3.2 26.3
13:35 1020 30.12 849 25.07 16.5 61.6 25 -3.3 26
13:40 1020 30.12 849 25.07 16.7 62 25 -3.5 25.6
13:45 1020 30.12 849 25.07 16.3 61.4 23 -4.5 23.9
13:50 1020 30.12 849 25.07 16.5 61.7 22 -5.4 22.2
13:55 1020 30.12 849 25.07 16.6 61.8 22 -4.9 23.2
14:00 1020 30.12 849 25.07 16.6 61.9 22 -5.1 22.9
14:05 1020 30.12 849 25.07 16.4 61.5 21 -5.8 21.5
14:10 1020 30.12 849 25.07 16.4 61.4 22 -5.5 22.1
14:15 1020 30.12 849 25.07 16.2 61.2 22 -5.3 22.5
14:20 1019 30.09 849 25.07 16.3 61.4 22 -5.3 22.4
14:25 1019 30.09 849 25.07 16.3 61.4 23 -4.5 23.9
14:30 1020 30.12 849 25.07 16.6 61.8 23 -4.6 23.7
14:35 1020 30.12 849 25.07 17.4 63.2 22 -4.5 23.9
14:40 1019 30.09 849 25.07 16.7 62 24 -3.7 25.3
14:45 1020 30.12 849 25.07 16 60.8 24 -4.6 23.8
14:50 1020 30.12 849 25.07 16.3 61.3 24 -4.1 24.6
14:55 1020 30.12 849 25.07 16.2 61.2 24 -4.3 24.2
15:00 1020 30.12 849 25.07 15.9 60.6 24 -4.7 23.6
15:05 1020 30.12 849 25.07 16 60.8 25 -4.1 24.7
15:10 1020 30.12 849 25.07 15.9 60.6 24 -4.5 23.9
15:15 1020 30.12 849 25.07 15.9 60.6 24 -4.6 23.8
15:20 1020 30.12 849 25.07 15.3 59.5 25 -4.5 23.8
15:25 1020 30.12 849 25.07 14.9 58.8 26 -4.4 24
15:30 1020 30.12 849 25.07 15 58.9 25 -4.7 23.6
15:35 1020 30.12 849 25.07 14.7 58.4 26 -4.8 23.4
15:40 1020 30.12 849 25.07 14.5 58 25 -5.1 22.8
15:45 1020 30.12 849 25.07 14.1 57.4 25 -5.4 22.3
15:50 1020 30.12 849 25.07 13.9 57 26 -5.2 22.6
15:55 1020 30.12 850 25.1 13.9 57.1 26 -5.3 22.5
16:00 1020 30.12 850 25.1 14 57.2 26 -4.9 23.1
16:05 1021 30.15 850 25.1 14.1 57.3 26 -5.3 22.5
16:10 1020 30.12 850 25.1 14 57.2 25 -5.8 21.6
16:15 1020 30.12 850 25.1 13.9 56.9 25 -5.6 21.9
16:20 1021 30.15 850 25.1 13.9 57.1 24 -6.3 20.7
16:25 1021 30.15 850 25.1 13.8 56.9 24 -6.2 20.8
16:30 1021 30.15 850 25.1 13.8 56.8 24 -6.3 20.6
16:35 1021 30.15 850 25.1 13.7 56.7 25 -6 21.2
16:40 1021 30.15 850 25.1 13.7 56.7 26 -5.6 21.9
16:45 1021 30.15 850 25.1 13.7 56.6 25 -6.2 20.8
16:50 1021 30.15 850 25.1 13.6 56.4 25 -5.8 21.5
16:55 1021 30.15 850 25.1 13.5 56.3 25 -6.1 21.1
17:00 1021 30.15 850 25.1 13.5 56.2 24 -6.4 20.4
17:05 1021 30.15 850 25.1 13.5 56.2 25 -6.3 20.6
17:10 1021 30.15 850 25.1 13.4 56.2 25 -6.1 21
17:15 1021 30.15 850 25.1 13.4 56.2 24 -6.5 20.4
17:20 1021 30.15 851 25.13 13.3 55.9 26 -5.8 21.5
17:25 1022 30.18 851 25.13 13 55.4 30 -4.3 24.3
17:30 1022 30.18 851 25.13 12.3 54.2 33 -3.4 25.8
17:35 1022 30.18 851 25.13 11.9 53.4 31 -4.5 23.9
17:40 1022 30.18 851 25.13 11.8 53.3 31 -4.7 23.6
17:45 1022 30.18 851 25.13 11.9 53.5 31 -4.7 23.6
17:50 1022 30.18 852 25.16 12 53.5 33 -3.8 25.1
17:55 1023 30.21 852 25.16 11.4 52.5 34 -3.8 25.2
18:00 1023 30.21 852 25.16 11 51.8 37 -3.1 26.3
18:05 1023 30.21 852 25.16 10.5 50.9 39 -2.9 26.7
18:10 1023 30.21 852 25.16 10.2 50.3 39 -3 26.6
18:15 1023 30.21 852 25.16 10.2 50.3 41 -2.5 27.5
18:20 1023 30.21 852 25.16 10 49.9 47 -0.8 30.6
18:25 1023 30.21 853 25.19 9.4 48.8 53 0.4 32.6
18:30 1024 30.24 853 25.19 8.7 47.6 57 0.7 33.3
18:35 1024 30.24 853 25.19 8.3 46.9 59 0.7 33.3
18:40 1024 30.24 853 25.19 8.2 46.8 57 0.2 32.3
18:45 1024 30.24 853 25.19 8.2 46.7 56 -0 32
18:50 1024 30.24 854 25.22 8.1 46.6 56 -0.2 31.7
18:55 1025 30.27 854 25.22 8.2 46.8 56 -0 31.9
19:00 1025 30.27 854 25.22 8.3 47 56 0.1 32.2
19:05 1025 30.27 854 25.22 8.1 46.6 58 0.3 32.5
19:10 1025 30.27 854 25.22 8 46.3 59 0.4 32.7
19:15 1025 30.27 854 25.22 7.8 46 59 0.4 32.6
19:20 1025 30.27 854 25.22 7.7 45.8 60 0.5 32.8
19:25 1025 30.27 854 25.22 7.8 46 58 0 32
19:30 1025 30.27 854 25.22 7.9 46.3 57 0 32
19:35 1025 30.27 855 25.25 8.1 46.6 57 0.2 32.4
19:40 1025 30.27 855 25.25 8.2 46.7 57 0.3 32.6
19:45 1026 30.3 855 25.25 8.2 46.8 57 0.3 32.5
19:50 1026 30.3 855 25.25 8.3 46.9 58 0.4 32.8
19:55 1026 30.3 855 25.25 8.3 46.9 58 0.6 33.1
20:00 1026 30.3 855 25.25 8.2 46.7 60 0.8 33.4
20:05 1026 30.3 855 25.25 7.9 46.2 64 1.5 34.7
20:10 1026 30.3 856 25.28 7.6 45.6 70 2.4 36.3
20:15 1026 30.3 856 25.28 7.2 44.9 70 2.2 35.9
20:20 1026 30.3 856 25.28 7.2 44.9 70 2.1 35.8
20:25 1026 30.3 856 25.28 7.1 44.7 71 2.1 35.8
20:30 1027 30.33 856 25.28 7.1 44.8 69 1.9 35.4
20:35 1027 30.33 856 25.28 7.1 44.9 68 1.7 35.1
20:40 1027 30.33 856 25.28 7.1 44.8 69 1.8 35.3
20:45 1027 30.33 856 25.28 7.1 44.7 69 1.8 35.2
20:50 1027 30.33 856 25.28 7.1 44.7 68 1.7 35
20:55 1027 30.33 856 25.28 7.1 44.8 68 1.7 35
21:00 1027 30.33 856 25.28 7.1 44.8 68 1.6 34.9
21:05 1027 30.33 856 25.28 7.1 44.7 68 1.6 34.9
21:10 1027 30.33 857 25.31 6.9 44.5 71 2 35.7
21:15 1028 30.36 857 25.31 6.7 44.1 72 2 35.6
21:20 1028 30.36 857 25.31 6.6 43.9 72 2 35.7
21:25 1028 30.36 857 25.31 6.5 43.6 73 2 35.7
21:30 1028 30.36 857 25.31 6.5 43.7 73 1.9 35.4
21:35 1028 30.36 857 25.31 6.5 43.7 72 1.8 35.3
21:40 1028 30.36 857 25.31 6.4 43.6 73 1.9 35.5
21:45 1028 30.36 857 25.31 6.4 43.5 72 1.7 35.1
21:50 1028 30.36 857 25.31 6.6 43.8 72 1.8 35.3
21:55 1028 30.36 857 25.31 6.4 43.5 73 2 35.6
22:00 1028 30.36 857 25.31 6.3 43.4 72 1.7 35.1
22:05 1028 30.36 857 25.31 6.4 43.5 73 1.8 35.3
22:10 1028 30.36 857 25.31 6.4 43.6 72 1.8 35.2
22:15 1028 30.36 857 25.31 6.6 43.9 70 1.6 34.8
22:20 1028 30.36 857 25.31 6.6 43.9 70 1.6 34.9
22:25 1028 30.36 857 25.31 6.5 43.8 71 1.7 35
22:30 1028 30.36 857 25.31 6.6 43.9 71 1.7 35.1
22:35 1028 30.36 857 25.31 6.6 43.8 72 1.8 35.3
22:40 1028 30.36 857 25.31 6.4 43.6 72 1.8 35.2
22:45 1028 30.36 857 25.31 6.3 43.4 72 1.7 35
22:50 1028 30.36 857 25.31 6.4 43.4 72 1.7 35.1
22:55 1028 30.36 858 25.34 6.4 43.6 71 1.6 34.9
23:00 1028 30.36 858 25.34 6.5 43.7 72 1.7 35.1
23:05 1028 30.36 858 25.34 6.5 43.6 72 1.8 35.2
23:10 1029 30.39 858 25.34 6.4 43.5 72 1.7 35.1
23:15 1029 30.39 858 25.34 6.4 43.6 73 1.9 35.5
23:20 1029 30.39 858 25.34 6.3 43.3 73 1.8 35.3
23:25 1029 30.39 858 25.34 6.2 43.2 74 2 35.6
23:30 1029 30.39 858 25.34 6.2 43.2 73 1.8 35.3
23:35 1029 30.39 858 25.34 6.2 43.2 74 1.9 35.5
23:40 1029 30.39 858 25.34 5.9 42.6 75 1.8 35.2
23:45 1029 30.39 858 25.34 5.6 42.1 76 1.7 35.1
23:50 1029 30.39 858 25.34 5.6 42 77 1.8 35.3
23:55 1029 30.39 858 25.34 5.6 42.1 76 1.8 35.2
24:00 1029 30.39 858 25.34 5.4 41.7 77 1.8 35.2